Terminal Aerodrome Forecast
Issued by NWS Memphis, TN

Home | Current Version | Previous Version | Text Only | Print | Product List | Glossary On
Versions: 1 2 3 4 5 6 7 8 9 10 11 12 13 14 15 16 17 18 19
000
FTUS44 KMEG 110500
TAFMKL
TAF
KMKL 110520Z 1106/1206 VRB02KT P6SM SCT100 BKN250
      TEMPO 1109/1112 3SM BR
     FM111900 25004KT P6SM SCT060
     FM120100 00000KT P6SM FEW060 SCT150=

USA.gov is the U.S. government's official web portal to all federal, state and local government web resources and services.